Time;durP1;ratioP1;P1;durP2;ratioP2;P2;SDS_P1;SDS_P2;PMS_P1;PMS_P2;Temp;Humidity;BMP_temperature;BMP_pressure;BME280_temperature;BME280_humidity;BME280_pressure;Samples;Min_cycle;Max_cycle;Signal;HPM_P1;HPM_P2
2021/01/19 00:00:24;;;;;;;21.97;4.40;;;5.30;99.90;;;;;;5093187;28;20572;-81
2021/01/19 00:02:50;;;;;;;10.90;3.53;;;5.30;99.90;;;;;;5093038;28;20227;-82
2021/01/19 00:05:16;;;;;;;15.27;3.87;;;5.20;99.90;;;;;;5093202;28;20204;-81
2021/01/19 00:07:43;;;;;;;22.77;4.93;;;5.10;99.90;;;;;;5093139;28;20718;-81
2021/01/19 00:10:11;;;;;;;14.13;4.30;;;5.10;99.90;;;;;;5093214;28;20219;-82
2021/01/19 00:12:37;;;;;;;16.33;4.27;;;5.00;99.90;;;;;;5093334;28;20207;-81
2021/01/19 00:15:06;;;;;;;17.53;3.57;;;5.00;99.90;;;;;;5093153;28;20201;-81
2021/01/19 00:17:33;;;;;;;16.43;3.60;;;5.00;99.90;;;;;;5093076;28;20252;-81
2021/01/19 00:19:59;;;;;;;19.10;4.93;;;5.00;99.90;;;;;;5092722;28;20207;-82
2021/01/19 00:22:25;;;;;;;17.30;4.33;;;4.90;99.90;;;;;;5093356;28;20208;-81
2021/01/19 00:24:52;;;;;;;19.93;4.23;;;4.90;99.90;;;;;;5092596;28;20657;-81
2021/01/19 00:27:19;;;;;;;16.63;4.53;;;4.90;99.90;;;;;;5093176;28;20206;-81
2021/01/19 00:29:45;;;;;;;15.53;4.20;;;4.90;99.90;;;;;;5092787;28;20220;-81
2021/01/19 00:32:11;;;;;;;20.33;4.30;;;4.80;99.90;;;;;;5092659;28;20256;-80
2021/01/19 00:34:38;;;;;;;18.90;4.37;;;4.90;99.90;;;;;;5092848;28;20568;-81
2021/01/19 00:37:04;;;;;;;17.23;4.57;;;4.80;99.90;;;;;;5092878;28;20281;-81
2021/01/19 00:39:30;;;;;;;20.23;5.20;;;4.80;99.90;;;;;;5092906;28;20206;-82
2021/01/19 00:41:57;;;;;;;12.37;4.30;;;4.80;99.90;;;;;;5092525;28;20659;-81
2021/01/19 00:44:24;;;;;;;20.27;5.10;;;4.80;99.90;;;;;;5071251;28;611535;-81
2021/01/19 00:46:51;;;;;;;13.70;4.70;;;4.80;99.90;;;;;;5093542;28;20203;-82
2021/01/19 00:49:18;;;;;;;16.63;4.63;;;4.80;99.90;;;;;;5110220;28;20304;-82
2021/01/19 00:51:44;;;;;;;17.27;4.43;;;4.80;99.90;;;;;;5113156;28;20294;-82
2021/01/19 00:54:11;;;;;;;14.30;4.33;;;4.80;99.90;;;;;;5111752;28;20273;-82
2021/01/19 00:56:38;;;;;;;18.47;4.77;;;4.80;99.90;;;;;;5113378;28;20283;-82
2021/01/19 00:59:06;;;;;;;16.77;4.97;;;4.80;99.90;;;;;;5111481;28;20211;-81
2021/01/19 01:01:33;;;;;;;18.57;5.63;;;4.80;99.90;;;;;;5113078;28;20206;-82
2021/01/19 01:04:00;;;;;;;17.33;5.07;;;4.70;99.90;;;;;;5113061;28;20250;-82
2021/01/19 01:06:26;;;;;;;15.87;4.80;;;4.70;99.90;;;;;;5111410;28;20243;-82
2021/01/19 01:08:53;;;;;;;18.73;4.63;;;4.70;99.90;;;;;;5113629;28;20223;-82
2021/01/19 01:11:19;;;;;;;15.90;4.73;;;4.70;99.90;;;;;;5113354;28;20230;-82
2021/01/19 01:13:46;;;;;;;21.03;5.23;;;4.70;99.90;;;;;;5113924;28;20207;-82
2021/01/19 01:16:13;;;;;;;17.70;5.50;;;4.80;99.90;;;;;;5111284;28;20208;-82
2021/01/19 01:18:40;;;;;;;17.47;5.53;;;4.90;99.90;;;;;;5112698;28;20563;-82
2021/01/19 01:21:10;;;;;;;24.27;5.20;;;5.00;99.90;;;;;;5111700;28;20208;-81
2021/01/19 01:23:37;;;;;;;23.27;5.43;;;5.10;99.90;;;;;;5099473;28;20248;-81
2021/01/19 01:26:03;;;;;;;19.73;6.43;;;5.20;99.90;;;;;;5113678;28;20237;-81
2021/01/19 01:28:29;;;;;;;17.57;5.37;;;5.20;99.90;;;;;;5113679;28;20223;-81
2021/01/19 01:30:56;;;;;;;22.93;5.37;;;5.30;99.90;;;;;;5113711;28;20199;-81
2021/01/19 01:33:23;;;;;;;18.43;5.87;;;5.30;99.90;;;;;;5114026;28;20260;-81
2021/01/19 01:35:49;;;;;;;17.17;5.60;;;5.40;99.90;;;;;;5113294;28;20198;-81
2021/01/19 01:38:15;;;;;;;19.60;6.43;;;5.30;99.90;;;;;;5113106;28;20212;-81
2021/01/19 01:40:42;;;;;;;17.87;4.97;;;5.40;99.90;;;;;;5113443;28;20294;-81
2021/01/19 01:43:13;;;;;;;21.57;6.00;;;5.40;99.90;;;;;;5113457;28;20287;-81
2021/01/19 01:45:40;;;;;;;21.40;5.87;;;5.50;99.90;;;;;;5113655;28;20290;-82
2021/01/19 01:48:08;;;;;;;25.87;5.67;;;5.50;99.90;;;;;;5113294;28;20572;-81
2021/01/19 01:50:36;;;;;;;13.37;5.03;;;5.50;99.90;;;;;;5113256;28;20207;-81
2021/01/19 01:53:03;;;;;;;17.43;5.43;;;5.60;99.90;;;;;;5113264;28;20210;-83
2021/01/19 01:55:30;;;;;;;14.30;5.47;;;5.60;99.90;;;;;;5110677;28;20204;-81
2021/01/19 01:57:56;;;;;;;20.13;5.30;;;5.60;99.90;;;;;;5112841;28;20208;-81
2021/01/19 02:00:23;;;;;;;13.00;4.90;;;5.70;99.90;;;;;;5113269;28;20201;-81
2021/01/19 02:02:50;;;;;;;14.93;4.70;;;5.60;99.90;;;;;;5113298;28;20206;-81
2021/01/19 02:05:18;;;;;;;14.60;4.63;;;5.70;99.90;;;;;;5113191;28;20225;-81
2021/01/19 02:07:56;;;;;;;19.23;4.70;;;5.60;99.90;;;;;;5113063;28;20288;-81
2021/01/19 02:10:28;;;;;;;13.13;5.07;;;5.70;99.90;;;;;;5112926;28;20271;-81
2021/01/19 02:12:57;;;;;;;19.67;5.40;;;5.70;99.90;;;;;;5112970;28;20252;-81
2021/01/19 02:15:34;;;;;;;18.30;5.20;;;5.80;99.90;;;;;;5112881;28;20211;-81
2021/01/19 02:18:13;;;;;;;19.50;5.33;;;5.70;99.90;;;;;;5113099;28;20278;-81
2021/01/19 02:20:53;;;;;;;19.97;6.07;;;5.60;99.90;;;;;;5112847;28;20332;-81
2021/01/19 02:23:37;;;;;;;17.83;5.13;;;5.60;99.90;;;;;;5113133;28;20222;-80
2021/01/19 02:26:49;;;;;;;13.37;5.70;;;5.60;99.90;;;;;;5112846;28;20711;-81
2021/01/19 02:29:54;;;;;;;16.37;6.00;;;5.50;99.90;;;;;;5050091;28;20294;-81
2021/01/19 02:32:30;;;;;;;16.43;5.83;;;5.50;99.90;;;;;;5103128;28;20711;-81
2021/01/19 02:35:02;;;;;;;20.83;6.20;;;5.50;99.90;;;;;;5112924;28;20207;-80
2021/01/19 02:37:34;;;;;;;15.97;6.10;;;5.50;99.90;;;;;;5112929;28;20195;-81
2021/01/19 02:40:04;;;;;;;16.53;6.63;;;5.50;99.90;;;;;;5112482;28;20196;-80
2021/01/19 02:42:37;;;;;;;17.77;6.43;;;5.50;99.90;;;;;;5113115;28;20608;-81
2021/01/19 02:45:08;;;;;;;19.10;5.97;;;5.50;99.90;;;;;;5112786;28;20228;-81
2021/01/19 02:47:35;;;;;;;20.37;6.43;;;5.50;99.90;;;;;;5113000;28;20203;-80
2021/01/19 02:50:02;;;;;;;16.87;5.53;;;5.50;99.90;;;;;;5112768;28;20215;-81
2021/01/19 02:52:28;;;;;;;18.17;6.00;;;5.50;99.90;;;;;;5116301;28;20203;-80
2021/01/19 02:54:56;;;;;;;17.33;5.67;;;5.50;99.90;;;;;;5116959;28;20210;-80
2021/01/19 02:57:33;;;;;;;12.90;5.50;;;5.50;99.90;;;;;;5116600;28;20196;-80
2021/01/19 03:00:10;;;;;;;11.60;5.30;;;5.50;99.90;;;;;;5116844;28;20256;-79
2021/01/19 03:02:40;;;;;;;12.53;4.97;;;5.50;99.90;;;;;;5116616;28;20213;-80
2021/01/19 03:05:10;;;;;;;16.87;5.50;;;5.60;99.90;;;;;;5117073;28;20263;-79
2021/01/19 03:07:41;;;;;;;12.20;4.47;;;5.50;99.90;;;;;;5116775;28;20208;-79
2021/01/19 03:10:08;;;;;;;23.47;5.60;;;5.50;99.90;;;;;;5116728;28;20223;-79
2021/01/19 03:12:39;;;;;;;15.00;5.63;;;5.50;99.90;;;;;;5116678;28;20202;-79
2021/01/19 03:15:06;;;;;;;13.37;5.20;;;5.50;99.90;;;;;;5116235;28;20203;-79
2021/01/19 03:17:33;;;;;;;16.50;6.20;;;5.50;99.90;;;;;;5116339;28;20199;-79
2021/01/19 03:20:00;;;;;;;14.87;5.40;;;5.50;99.90;;;;;;5116205;28;20203;-79
2021/01/19 03:22:26;;;;;;;15.70;5.63;;;5.50;99.90;;;;;;5116653;28;20456;-79
2021/01/19 03:24:52;;;;;;;14.77;5.63;;;5.50;99.90;;;;;;5116155;28;20213;-79
2021/01/19 03:27:19;;;;;;;19.10;5.47;;;5.60;99.90;;;;;;5116440;28;20203;-79
2021/01/19 03:29:45;;;;;;;11.20;5.20;;;5.50;99.90;;;;;;5115969;28;20617;-79
2021/01/19 03:32:11;;;;;;;15.03;5.57;;;5.60;99.90;;;;;;5115860;28;20656;-79
2021/01/19 03:34:39;;;;;;;10.30;5.27;;;5.60;99.90;;;;;;5116044;28;20231;-80
2021/01/19 03:37:06;;;;;;;15.50;5.40;;;5.60;99.90;;;;;;5116182;28;20205;-79
2021/01/19 03:39:33;;;;;;;17.83;5.40;;;5.70;99.90;;;;;;5115924;28;20278;-79
2021/01/19 03:41:59;;;;;;;13.07;5.33;;;5.60;99.90;;;;;;5115841;28;20211;-79
2021/01/19 03:44:25;;;;;;;14.77;5.67;;;5.60;99.90;;;;;;5115413;28;20286;-79
2021/01/19 03:46:52;;;;;;;15.07;5.23;;;5.70;99.90;;;;;;5115557;28;20207;-79
2021/01/19 03:49:18;;;;;;;10.27;4.67;;;5.70;99.90;;;;;;5115679;28;20244;-79
2021/01/19 03:51:45;;;;;;;16.77;5.63;;;5.60;99.90;;;;;;5115590;28;20207;-79
2021/01/19 03:54:12;;;;;;;10.10;5.10;;;5.70;99.90;;;;;;5115308;28;20211;-80
2021/01/19 03:56:38;;;;;;;11.57;5.73;;;5.70;99.90;;;;;;5115657;28;20199;-79
2021/01/19 03:59:05;;;;;;;12.93;5.13;;;5.70;99.90;;;;;;5115562;28;20200;-80
2021/01/19 04:01:31;;;;;;;16.60;5.57;;;5.80;99.90;;;;;;5115289;28;20553;-79
2021/01/19 04:03:57;;;;;;;15.30;6.00;;;5.80;99.90;;;;;;5115662;28;20738;-79
2021/01/19 04:06:24;;;;;;;15.57;5.73;;;5.90;99.90;;;;;;5116363;28;20200;-79
2021/01/19 04:08:50;;;;;;;14.10;6.03;;;5.80;99.90;;;;;;5114918;28;20702;-80
2021/01/19 04:11:18;;;;;;;13.00;5.13;;;5.80;99.90;;;;;;5115747;28;20195;-79
2021/01/19 04:13:45;;;;;;;10.90;5.37;;;5.90;99.90;;;;;;5115908;28;20264;-79
2021/01/19 04:16:11;;;;;;;15.23;5.87;;;5.90;99.90;;;;;;5115299;28;20203;-79
2021/01/19 04:18:37;;;;;;;10.97;5.43;;;6.00;99.90;;;;;;5115470;28;20607;-79
2021/01/19 04:21:04;;;;;;;11.57;5.20;;;5.90;99.90;;;;;;5115262;28;20203;-81
2021/01/19 04:23:30;;;;;;;14.67;5.20;;;6.00;99.90;;;;;;5115637;28;20254;-79
2021/01/19 04:25:57;;;;;;;10.20;5.20;;;6.00;99.90;;;;;;5114723;28;20699;-79
2021/01/19 04:28:24;;;;;;;12.97;4.93;;;6.00;99.90;;;;;;5115159;28;20552;-79
2021/01/19 04:30:50;;;;;;;12.77;4.90;;;6.00;99.90;;;;;;5114587;28;20199;-79
2021/01/19 04:33:17;;;;;;;12.03;4.87;;;6.10;99.90;;;;;;5114873;28;20210;-79
2021/01/19 04:35:43;;;;;;;11.83;4.67;;;6.00;99.90;;;;;;5115195;28;20207;-79
2021/01/19 04:38:09;;;;;;;12.37;4.40;;;6.00;99.90;;;;;;5115062;28;20228;-79
2021/01/19 04:40:36;;;;;;;14.00;4.80;;;6.00;99.90;;;;;;5114453;28;20229;-79
2021/01/19 04:43:04;;;;;;;9.93;4.20;;;6.00;99.90;;;;;;5114812;28;20198;-79
2021/01/19 04:45:32;;;;;;;13.30;5.00;;;6.10;99.90;;;;;;5114842;28;20197;-79
2021/01/19 04:47:59;;;;;;;10.53;4.10;;;6.10;99.90;;;;;;5115172;28;20199;-79
2021/01/19 04:50:25;;;;;;;13.83;3.97;;;6.10;99.90;;;;;;5114271;28;20248;-79
2021/01/19 04:52:54;;;;;;;11.90;4.33;;;6.10;99.90;;;;;;5114763;28;20229;-79
2021/01/19 04:55:24;;;;;;;8.13;3.50;;;6.10;99.90;;;;;;5114456;28;20205;-79
2021/01/19 04:57:57;;;;;;;8.93;4.00;;;6.20;99.90;;;;;;5114510;28;20199;-79
2021/01/19 05:00:30;;;;;;;16.67;4.10;;;6.10;99.90;;;;;;5114351;28;20207;-79
2021/01/19 05:03:17;;;;;;;15.17;4.90;;;6.20;99.90;;;;;;5114441;28;20195;-79
2021/01/19 05:05:59;;;;;;;16.03;3.73;;;6.20;99.90;;;;;;5114571;28;20290;-79
2021/01/19 05:08:54;;;;;;;8.47;3.70;;;6.20;99.90;;;;;;5114771;28;20618;-80
2021/01/19 05:11:22;;;;;;;12.43;3.40;;;6.20;99.90;;;;;;5114369;28;20608;-79
2021/01/19 05:14:02;;;;;;;12.17;3.30;;;6.20;99.90;;;;;;5113761;28;20256;-79
2021/01/19 05:16:31;;;;;;;19.03;3.67;;;6.10;99.90;;;;;;5114223;28;20623;-79
2021/01/19 05:19:00;;;;;;;9.27;3.50;;;6.10;99.90;;;;;;5114140;28;20208;-79
2021/01/19 05:21:26;;;;;;;13.40;4.80;;;6.20;99.90;;;;;;5112932;28;20461;-79
2021/01/19 05:23:55;;;;;;;10.47;3.43;;;6.30;99.90;;;;;;5114103;28;20200;-79
2021/01/19 05:26:21;;;;;;;13.00;3.87;;;6.30;99.90;;;;;;5113687;28;20731;-79
2021/01/19 05:28:49;;;;;;;7.90;3.60;;;6.30;99.90;;;;;;5113522;28;20216;-79
2021/01/19 05:31:24;;;;;;;7.33;3.40;;;6.30;99.90;;;;;;5113689;28;20210;-79
2021/01/19 05:34:06;;;;;;;10.57;3.10;;;6.30;99.90;;;;;;5113589;28;20571;-79
2021/01/19 05:36:38;;;;;;;8.20;2.60;;;6.30;99.90;;;;;;5113919;28;20204;-79
2021/01/19 05:39:07;;;;;;;10.07;2.73;;;6.30;99.90;;;;;;5113554;28;20205;-78
2021/01/19 05:41:38;;;;;;;9.43;2.93;;;6.30;99.90;;;;;;5113407;28;20205;-78
2021/01/19 05:44:26;;;;;;;7.37;2.63;;;6.30;99.90;;;;;;5113216;28;20242;-78
2021/01/19 05:46:59;;;;;;;9.13;2.70;;;6.30;99.90;;;;;;5105015;28;20282;-79
2021/01/19 05:49:28;;;;;;;13.87;2.37;;;6.30;99.90;;;;;;5113377;28;20208;-78
2021/01/19 05:51:59;;;;;;;6.23;2.40;;;6.30;99.90;;;;;;5113098;28;20202;-78
2021/01/19 05:54:28;;;;;;;7.80;2.43;;;6.30;99.90;;;;;;5113177;28;20202;-79
2021/01/19 05:57:08;;;;;;;10.83;2.80;;;6.30;99.90;;;;;;5113261;28;20671;-79
2021/01/19 05:59:37;;;;;;;10.50;2.40;;;6.20;99.90;;;;;;5097647;28;20245;-79
2021/01/19 06:02:09;;;;;;;9.93;2.10;;;6.30;99.90;;;;;;5094447;28;20220;-79
2021/01/19 06:04:42;;;;;;;9.70;2.37;;;6.20;99.90;;;;;;5103360;28;20582;-79
2021/01/19 06:07:09;;;;;;;9.47;2.27;;;6.20;99.90;;;;;;5113302;28;20199;-79
2021/01/19 06:09:36;;;;;;;9.50;2.33;;;6.20;99.90;;;;;;5102184;28;20235;-77
2021/01/19 06:12:03;;;;;;;8.33;2.53;;;6.20;99.90;;;;;;5093822;28;20232;-78
2021/01/19 06:14:31;;;;;;;8.20;2.40;;;6.30;99.90;;;;;;5096741;28;20610;-79
2021/01/19 06:17:12;;;;;;;7.30;1.83;;;6.30;99.90;;;;;;5093381;28;20340;-79
2021/01/19 06:19:41;;;;;;;9.97;2.13;;;6.30;99.90;;;;;;5095075;28;20282;-79
2021/01/19 06:22:09;;;;;;;4.77;1.90;;;6.30;99.90;;;;;;5093401;28;20216;-79
2021/01/19 06:24:38;;;;;;;8.90;2.10;;;6.30;99.90;;;;;;5093069;28;20223;-79
2021/01/19 06:27:06;;;;;;;6.60;2.10;;;6.20;99.90;;;;;;5092246;28;20249;-77
2021/01/19 06:29:32;;;;;;;6.90;1.70;;;6.20;99.90;;;;;;5093522;28;20550;-79
2021/01/19 06:32:01;;;;;;;6.50;2.23;;;6.30;99.90;;;;;;5099162;28;20208;-78
2021/01/19 06:34:30;;;;;;;6.70;1.83;;;6.30;99.90;;;;;;5097728;28;20346;-79
2021/01/19 06:36:58;;;;;;;6.27;2.00;;;6.30;99.90;;;;;;5098531;28;20258;-79
2021/01/19 06:39:47;;;;;;;7.37;1.83;;;6.30;99.90;;;;;;5096517;28;20226;-79
2021/01/19 06:42:16;;;;;;;5.43;2.00;;;6.20;99.90;;;;;;5097757;28;20210;-79
2021/01/19 06:44:48;;;;;;;6.53;1.60;;;6.20;99.90;;;;;;5109329;28;20302;-79
2021/01/19 06:47:19;;;;;;;4.63;1.63;;;6.20;99.90;;;;;;5109355;28;20210;-79
2021/01/19 06:49:46;;;;;;;4.10;1.70;;;6.30;99.90;;;;;;5105180;28;20219;-78
2021/01/19 06:52:14;;;;;;;7.20;1.80;;;6.30;99.90;;;;;;5111938;28;20203;-79
2021/01/19 06:54:50;;;;;;;3.37;1.53;;;6.20;99.90;;;;;;5111372;28;20203;-79
2021/01/19 06:57:31;;;;;;;5.73;1.97;;;6.20;99.90;;;;;;5112898;28;20209;-79
2021/01/19 07:00:07;;;;;;;6.73;2.30;;;6.20;99.90;;;;;;5112068;28;20207;-79
2021/01/19 07:02:36;;;;;;;9.13;2.10;;;6.20;99.90;;;;;;5107314;28;20570;-79
2021/01/19 07:05:10;;;;;;;4.37;1.80;;;6.20;99.90;;;;;;5104486;28;20247;-79
2021/01/19 07:07:41;;;;;;;2.70;1.43;;;6.30;99.90;;;;;;5104629;28;20732;-79
2021/01/19 07:10:11;;;;;;;4.17;1.43;;;6.30;99.90;;;;;;5104484;28;20588;-78
2021/01/19 07:13:05;;;;;;;3.23;1.37;;;6.30;99.90;;;;;;5099482;28;20205;-79
2021/01/19 07:16:05;;;;;;;6.10;1.93;;;6.30;99.90;;;;;;5111430;28;20710;-79
2021/01/19 07:18:48;;;;;;;5.40;1.67;;;6.30;99.90;;;;;;5106295;28;20846;-77
2021/01/19 07:21:16;;;;;;;4.03;1.40;;;6.20;99.90;;;;;;5110947;28;20207;-78
2021/01/19 07:24:17;;;;;;;3.30;1.70;;;6.20;99.90;;;;;;5111375;28;20209;-78
2021/01/19 07:26:45;;;;;;;3.33;1.70;;;6.20;99.90;;;;;;5097762;28;20202;-79
2021/01/19 07:29:14;;;;;;;4.73;1.47;;;6.30;99.90;;;;;;5108099;28;20226;-79
2021/01/19 07:31:41;;;;;;;4.90;1.50;;;6.30;99.90;;;;;;5111564;28;20205;-79
2021/01/19 07:34:09;;;;;;;5.53;1.47;;;6.30;99.90;;;;;;5110843;28;20210;-79
2021/01/19 07:36:36;;;;;;;5.20;1.60;;;6.30;99.90;;;;;;5107995;28;20256;-80
2021/01/19 07:39:12;;;;;;;7.47;1.77;;;6.30;99.90;;;;;;5109368;28;20605;-79
2021/01/19 07:41:39;;;;;;;6.50;1.87;;;6.30;99.90;;;;;;5102855;28;20196;-79
2021/01/19 07:44:06;;;;;;;3.73;1.60;;;6.30;99.90;;;;;;5114598;28;20207;-79
2021/01/19 07:46:32;;;;;;;5.00;1.70;;;6.30;99.90;;;;;;5115529;28;20277;-79
2021/01/19 07:49:03;;;;;;;3.53;1.60;;;6.30;99.90;;;;;;5114264;28;20620;-79
2021/01/19 07:51:39;;;;;;;6.33;1.50;;;6.40;99.90;;;;;;5111163;28;20633;-79
2021/01/19 07:54:06;;;;;;;3.20;1.73;;;6.40;99.90;;;;;;5096656;28;20250;-78
2021/01/19 07:56:33;;;;;;;4.67;1.87;;;6.40;99.90;;;;;;5098831;28;21032;-79
2021/01/19 07:59:01;;;;;;;3.93;1.60;;;6.40;99.90;;;;;;5114918;28;20606;-79
2021/01/19 08:01:28;;;;;;;3.33;1.30;;;6.40;99.90;;;;;;5105365;28;20196;-79
2021/01/19 08:03:54;;;;;;;3.97;1.63;;;6.40;99.90;;;;;;5114605;28;20284;-79
2021/01/19 08:06:31;;;;;;;4.67;1.50;;;6.50;99.90;;;;;;5113848;28;20195;-79
2021/01/19 08:09:09;;;;;;;4.93;1.60;;;6.50;99.90;;;;;;5108851;28;20223;-79
2021/01/19 08:11:35;;;;;;;2.70;1.40;;;6.60;99.90;;;;;;5115417;28;20210;-79
2021/01/19 08:14:03;;;;;;;4.13;1.47;;;6.50;99.90;;;;;;5115271;28;20290;-79
2021/01/19 08:16:32;;;;;;;2.47;1.37;;;6.60;99.90;;;;;;5115223;28;20245;-79
2021/01/19 08:19:06;;;;;;;4.37;1.77;;;6.60;99.90;;;;;;5114872;28;20198;-79
2021/01/19 08:21:38;;;;;;;4.83;1.47;;;6.60;99.90;;;;;;5106378;28;20202;-79
2021/01/19 08:24:07;;;;;;;8.87;1.80;;;6.60;99.90;;;;;;5100873;28;20199;-78
2021/01/19 08:26:33;;;;;;;5.70;2.30;;;6.70;99.90;;;;;;5113160;28;20439;-79
2021/01/19 08:29:02;;;;;;;6.40;2.10;;;6.70;99.90;;;;;;5114830;28;20267;-79
2021/01/19 08:31:29;;;;;;;8.27;2.00;;;6.70;99.90;;;;;;5114670;28;20244;-78
2021/01/19 08:34:03;;;;;;;3.80;1.77;;;6.80;99.90;;;;;;5113579;28;20648;-79
2021/01/19 08:36:30;;;;;;;5.83;1.93;;;6.90;99.90;;;;;;5114816;28;20656;-78
2021/01/19 08:38:58;;;;;;;3.50;1.70;;;6.90;99.90;;;;;;5115097;28;20301;-79
2021/01/19 08:41:25;;;;;;;2.03;1.40;;;6.90;99.90;;;;;;5114856;28;20358;-80
2021/01/19 08:43:53;;;;;;;3.67;1.70;;;6.80;99.90;;;;;;5114204;28;20225;-79
2021/01/19 08:46:20;;;;;;;3.77;1.70;;;6.90;99.90;;;;;;5114607;28;20651;-79
2021/01/19 08:48:49;;;;;;;3.23;1.70;;;6.90;99.90;;;;;;5113397;28;20333;-80
2021/01/19 08:51:22;;;;;;;4.33;2.03;;;6.90;99.90;;;;;;5114671;28;20659;-77
2021/01/19 08:53:49;;;;;;;5.00;1.80;;;6.90;99.90;;;;;;5114768;28;20202;-78
2021/01/19 08:56:20;;;;;;;3.80;1.90;;;7.00;99.90;;;;;;5115056;28;20323;-78
2021/01/19 08:58:47;;;;;;;5.93;1.83;;;7.00;99.90;;;;;;5115132;28;20206;-77
2021/01/19 09:01:13;;;;;;;2.47;1.40;;;7.10;99.90;;;;;;5114277;28;20305;-78
2021/01/19 09:03:41;;;;;;;4.30;1.60;;;7.10;99.90;;;;;;5113797;28;20211;-77
2021/01/19 09:06:09;;;;;;;4.47;1.63;;;7.20;99.90;;;;;;5114110;28;20204;-77
2021/01/19 09:08:38;;;;;;;3.60;1.70;;;7.20;99.90;;;;;;5114317;28;20201;-77
2021/01/19 09:11:06;;;;;;;3.77;1.60;;;7.30;99.90;;;;;;5114198;28;20231;-78
2021/01/19 09:13:36;;;;;;;2.13;1.50;;;7.40;99.90;;;;;;5114066;28;20196;-77
2021/01/19 09:16:04;;;;;;;3.97;1.60;;;7.40;99.90;;;;;;5111657;28;20207;-77
2021/01/19 09:18:30;;;;;;;2.07;1.23;;;7.40;99.90;;;;;;5113685;28;20259;-78
2021/01/19 09:21:06;;;;;;;2.07;1.40;;;7.40;99.90;;;;;;5112957;28;20210;-78
2021/01/19 09:23:34;;;;;;;4.20;1.57;;;7.50;99.90;;;;;;5113625;28;20393;-79
2021/01/19 09:26:05;;;;;;;4.03;1.30;;;7.70;99.90;;;;;;5114375;28;20206;-79
2021/01/19 09:28:34;;;;;;;2.17;1.33;;;7.70;99.90;;;;;;5113646;28;20199;-80
2021/01/19 09:31:15;;;;;;;2.27;1.27;;;7.80;99.90;;;;;;5113480;28;20292;-79
2021/01/19 09:33:42;;;;;;;3.87;1.50;;;7.80;99.90;;;;;;5114188;28;20188;-79
2021/01/19 09:36:11;;;;;;;2.40;1.37;;;7.90;99.90;;;;;;5113802;28;20209;-79
2021/01/19 09:38:38;;;;;;;1.70;1.10;;;7.90;99.90;;;;;;5113290;28;20210;-79
2021/01/19 09:41:06;;;;;;;2.33;1.20;;;8.00;99.90;;;;;;5109977;28;20232;-79
2021/01/19 09:43:33;;;;;;;3.27;1.40;;;7.90;99.90;;;;;;5102357;28;20294;-79
2021/01/19 09:46:01;;;;;;;2.37;1.10;;;8.00;99.90;;;;;;5113549;28;20192;-79
2021/01/19 09:48:33;;;;;;;2.83;1.27;;;8.10;99.90;;;;;;5113722;28;20246;-79
2021/01/19 09:51:01;;;;;;;3.30;1.30;;;8.10;99.90;;;;;;5105329;28;20348;-79
2021/01/19 09:53:31;;;;;;;3.80;1.10;;;8.20;99.90;;;;;;5113243;28;20377;-79
2021/01/19 09:55:58;;;;;;;3.43;1.37;;;8.20;99.90;;;;;;5113078;28;20198;-79
2021/01/19 09:58:26;;;;;;;2.30;1.20;;;8.20;99.90;;;;;;5112251;28;20263;-79
2021/01/19 10:00:53;;;;;;;2.17;1.40;;;8.30;99.90;;;;;;5112771;28;20196;-80
2021/01/19 10:03:21;;;;;;;2.93;1.50;;;8.20;99.90;;;;;;5113137;28;20333;-79
2021/01/19 10:06:04;;;;;;;2.23;1.20;;;8.40;99.90;;;;;;5113557;28;20199;-79
2021/01/19 10:08:32;;;;;;;5.33;1.00;;;8.50;99.90;;;;;;5112508;28;20547;-79
2021/01/19 10:10:58;;;;;;;2.30;1.03;;;8.60;99.90;;;;;;5112696;28;20606;-79
2021/01/19 10:13:33;;;;;;;2.53;1.57;;;8.50;99.90;;;;;;5112208;28;20687;-79
2021/01/19 10:16:04;;;;;;;3.57;1.20;;;8.60;99.90;;;;;;5112010;28;20206;-79
2021/01/19 10:18:31;;;;;;;2.00;0.90;;;8.70;99.90;;;;;;5112809;28;20211;-80
2021/01/19 10:20:58;;;;;;;1.37;0.77;;;8.70;99.90;;;;;;5112432;28;20203;-79
2021/01/19 10:23:29;;;;;;;2.80;1.10;;;8.70;99.90;;;;;;5112631;28;20289;-79
2021/01/19 10:26:10;;;;;;;2.97;1.20;;;8.70;99.90;;;;;;5111526;28;20196;-80
2021/01/19 10:28:42;;;;;;;1.73;0.93;;;8.70;99.90;;;;;;5112469;28;20191;-79
2021/01/19 10:31:16;;;;;;;1.20;0.80;;;8.80;99.90;;;;;;5112642;28;20274;-79
2021/01/19 10:33:56;;;;;;;2.40;1.10;;;8.80;99.90;;;;;;5112795;28;20209;-79
2021/01/19 10:36:23;;;;;;;2.30;1.00;;;8.90;99.90;;;;;;5101684;28;20319;-79
2021/01/19 10:38:50;;;;;;;1.53;0.90;;;8.90;99.90;;;;;;5120003;28;20680;-80
2021/01/19 10:41:28;;;;;;;1.10;0.90;;;9.00;99.90;;;;;;5112504;28;20186;-79
2021/01/19 10:43:55;;;;;;;2.93;1.00;;;9.00;99.90;;;;;;5112760;28;20215;-79
2021/01/19 10:46:23;;;;;;;1.07;0.90;;;9.00;99.90;;;;;;5112744;28;20260;-79
2021/01/19 10:48:59;;;;;;;1.60;1.10;;;9.00;99.90;;;;;;5112167;28;20281;-79
2021/01/19 10:51:27;;;;;;;3.17;0.90;;;9.00;99.90;;;;;;5112744;28;20210;-80
2021/01/19 10:54:12;;;;;;;2.47;1.20;;;9.10;99.90;;;;;;5112698;28;20197;-79
2021/01/19 10:56:42;;;;;;;2.00;1.20;;;9.00;99.90;;;;;;5112201;28;20577;-80
2021/01/19 10:59:10;;;;;;;1.50;1.20;;;9.00;99.90;;;;;;5112820;28;20200;-80
2021/01/19 11:01:37;;;;;;;1.07;0.97;;;9.10;99.90;;;;;;5108705;28;20196;-79
2021/01/19 11:04:05;;;;;;;1.40;1.10;;;9.20;99.90;;;;;;5091420;28;21034;-79
2021/01/19 11:06:32;;;;;;;1.87;1.20;;;9.20;99.90;;;;;;5091914;28;20201;-79
2021/01/19 11:08:59;;;;;;;3.83;1.23;;;9.20;99.90;;;;;;5092731;28;20226;-81
2021/01/19 11:11:26;;;;;;;2.47;1.60;;;9.10;99.90;;;;;;5092815;28;20194;-80
2021/01/19 11:13:57;;;;;;;1.87;1.10;;;9.10;99.90;;;;;;5111872;28;20208;-80
2021/01/19 11:16:28;;;;;;;1.73;1.40;;;9.10;99.90;;;;;;5116538;28;20192;-79
2021/01/19 11:18:54;;;;;;;2.10;1.30;;;9.20;99.90;;;;;;5116191;28;20198;-79
2021/01/19 11:21:21;;;;;;;1.90;1.60;;;9.20;99.90;;;;;;5115713;28;20642;-80
2021/01/19 11:23:47;;;;;;;3.77;1.33;;;9.20;99.90;;;;;;5116371;28;20244;-80
2021/01/19 11:26:16;;;;;;;1.73;1.50;;;9.20;99.90;;;;;;5115916;28;20209;-79
2021/01/19 11:28:42;;;;;;;1.93;1.40;;;9.30;99.90;;;;;;5115907;28;20203;-80
2021/01/19 11:31:09;;;;;;;2.60;1.70;;;9.30;99.90;;;;;;5112517;28;20231;-80
2021/01/19 11:33:35;;;;;;;2.83;1.63;;;9.30;99.90;;;;;;5115903;28;20436;-80
2021/01/19 11:36:02;;;;;;;2.40;1.30;;;9.30;99.90;;;;;;5116199;28;20199;-80
2021/01/19 11:38:30;;;;;;;3.37;1.70;;;9.30;99.90;;;;;;5109920;28;20585;-79
2021/01/19 11:40:56;;;;;;;3.13;1.50;;;9.30;99.90;;;;;;5125646;28;20198;-80
2021/01/19 11:43:22;;;;;;;2.20;1.93;;;9.20;99.90;;;;;;5115170;28;20208;-80
2021/01/19 11:45:49;;;;;;;3.53;1.90;;;9.20;99.90;;;;;;5115443;28;20207;-79
2021/01/19 11:48:18;;;;;;;1.53;1.43;;;9.10;99.90;;;;;;5108925;28;20219;-79
2021/01/19 11:50:45;;;;;;;3.10;1.90;;;9.10;99.90;;;;;;5098385;28;20331;-80
2021/01/19 11:53:11;;;;;;;3.07;1.80;;;9.00;99.90;;;;;;5094969;28;20667;-79
2021/01/19 11:55:37;;;;;;;4.07;2.10;;;9.00;99.90;;;;;;5095296;28;20207;-80
2021/01/19 11:58:03;;;;;;;2.10;1.90;;;9.00;99.90;;;;;;5095136;28;20200;-79
2021/01/19 12:00:30;;;;;;;2.47;2.00;;;8.90;99.90;;;;;;5095439;28;20285;-81
2021/01/19 12:02:56;;;;;;;4.73;2.13;;;8.90;99.90;;;;;;5095391;28;20204;-80
2021/01/19 12:05:23;;;;;;;2.37;2.17;;;8.90;99.90;;;;;;5114795;28;20268;-80
2021/01/19 12:07:50;;;;;;;2.50;1.87;;;8.90;99.90;;;;;;5115402;28;20200;-80
2021/01/19 12:10:16;;;;;;;3.00;2.27;;;8.90;99.90;;;;;;5115483;28;20230;-80
2021/01/19 12:12:43;;;;;;;3.27;2.57;;;9.00;99.90;;;;;;5115056;28;20196;-80
2021/01/19 12:15:09;;;;;;;4.93;2.33;;;9.00;99.90;;;;;;5115371;28;20198;-80
2021/01/19 12:17:36;;;;;;;3.10;2.20;;;9.10;99.90;;;;;;5115129;28;20208;-80
2021/01/19 12:20:03;;;;;;;3.03;2.10;;;9.20;99.90;;;;;;5114822;28;20205;-79
2021/01/19 12:22:30;;;;;;;2.50;2.07;;;9.10;99.90;;;;;;5114708;28;20208;-80
2021/01/19 12:24:56;;;;;;;4.13;2.07;;;9.20;99.90;;;;;;5115343;28;20303;-80
2021/01/19 12:27:22;;;;;;;3.43;2.30;;;9.30;99.90;;;;;;5114967;28;20193;-80
2021/01/19 12:29:49;;;;;;;4.27;2.30;;;9.40;99.90;;;;;;5115139;28;20255;-80
2021/01/19 12:32:15;;;;;;;3.53;2.17;;;9.30;99.90;;;;;;5114679;28;20635;-81
2021/01/19 12:34:42;;;;;;;3.60;2.10;;;9.30;99.90;;;;;;5114277;28;20575;-80
2021/01/19 12:37:09;;;;;;;4.03;2.30;;;9.30;99.90;;;;;;5114422;28;20563;-80
2021/01/19 12:39:36;;;;;;;3.13;2.67;;;9.30;99.90;;;;;;5115014;28;20199;-80
2021/01/19 12:42:02;;;;;;;4.00;2.87;;;9.30;99.90;;;;;;5114891;28;20290;-79
2021/01/19 12:44:29;;;;;;;2.87;2.57;;;9.40;99.90;;;;;;5114199;28;20734;-80
2021/01/19 12:46:59;;;;;;;4.30;3.00;;;9.40;99.90;;;;;;5114879;28;20294;-80
2021/01/19 12:49:25;;;;;;;4.03;2.87;;;9.40;99.90;;;;;;5101175;28;20208;-80
2021/01/19 12:51:52;;;;;;;4.17;3.00;;;9.30;99.90;;;;;;5094030;28;20495;-80
2021/01/19 12:54:18;;;;;;;3.20;2.83;;;9.30;99.90;;;;;;5094312;28;20228;-80
2021/01/19 12:56:45;;;;;;;3.50;3.17;;;9.30;99.90;;;;;;5094055;28;20205;-79
2021/01/19 12:59:12;;;;;;;5.00;3.33;;;9.30;99.90;;;;;;5094124;28;20228;-81
2021/01/19 13:01:38;;;;;;;5.13;3.53;;;9.40;99.90;;;;;;5109513;28;20216;-80
2021/01/19 13:04:05;;;;;;;4.40;3.43;;;9.40;99.90;;;;;;5114313;28;20265;-80